WetterOnline ( https://www.wetteronline.de )

Wetter aktuell Dammesmühle

Aktuelles Wetter: Hoherodskopf/Vogelsberg (743m)

6-stündlich | Neueste Meldungen
Ortszeit Temperatur Wetter
Sa, 31.10. 19:00 9.0° C bewölkt
Sa, 31.10. 13:00 8.2° C bedeckt
Sa, 31.10. 7:00 8.0° C Nebel
Sa, 31.10. 1:00 8.9° C Nebel
Fr, 30.10. 19:00 9.4° C Sprühregen
Fr, 30.10. 13:00 9.4° C Sprühregen
Fr, 30.10. 7:00 8.7° C Nebel
Fr, 30.10. 1:00 7.2° C Nebel
Ortszeit Temperatur Wetter
So, 01.11. 0:00 8.7° C bewölkt
Sa, 31.10. 23:30 8.8° C leichter Regen
Sa, 31.10. 23:20 8.8° C leichter Regen
Sa, 31.10. 23:10 9.1° C leichter Regen
Sa, 31.10. 23:00 9.2° C bewölkt
Sa, 31.10. 22:50 9.2° C bewölkt
Sa, 31.10. 22:30 9.0° C bewölkt
Sa, 31.10. 22:00 9.0° C bewölkt
Ortszeit Relative Feuchte Sichtweite
Sa, 31.10. 19:00 88% 40 km
Sa, 31.10. 13:00 99% 10 km
Sa, 31.10. 7:00 100% <100 m
Sa, 31.10. 1:00 100% <100 m
Fr, 30.10. 19:00 100% <100 m
Fr, 30.10. 13:00 100% <100 m
Fr, 30.10. 7:00 100% <100 m
Fr, 30.10. 1:00 100% <100 m
Ortszeit Relative Feuchte Sichtweite
So, 01.11. 0:00 91% 35 km
Sa, 31.10. 23:30 90% 15 km
Sa, 31.10. 23:20 90% -
Sa, 31.10. 23:10 87% -
Sa, 31.10. 23:00 84% 55 km
Sa, 31.10. 22:50 84% -
Sa, 31.10. 22:30 84% 45 km
Sa, 31.10. 22:00 85% 50 km
Ortszeit Niederschlagsmenge Niederschlagsart
Sa, 31.10. 19:00 0.1 l/m2 in 12 Std. -
Sa, 31.10. 13:00 0.1 l/m2 in 6 Std. Sprühregen
Sa, 31.10. 7:00 2 l/m2 in 12 Std. Sprühregen
Sa, 31.10. 1:00 2 l/m2 in 6 Std. Regen
Fr, 30.10. 19:00 2 l/m2 in 12 Std. Regen
Fr, 30.10. 13:00 0.8 l/m2 in 6 Std. Regen
Fr, 30.10. 7:00 10 l/m2 in 12 Std. Regen
Fr, 30.10. 1:00 7 l/m2 in 6 Std. Regen, Niederschlag
Ortszeit Niederschlagsmenge Niederschlagsart
So, 01.11. 0:00 0.2 l/m2 in 1 Std. Regen
Sa, 31.10. 23:30 0.1 l/m2 in 1 Std. -
Sa, 31.10. 23:20 keine Meldung -
Sa, 31.10. 23:10 keine Meldung -
Sa, 31.10. 23:00 0.0 l/m2 in 1 Std. -
Sa, 31.10. 22:50 keine Meldung -
Sa, 31.10. 22:30 0.0 l/m2 in 1 Std. -
Sa, 31.10. 22:00 0.0 l/m2 in 1 Std. -
Ortszeit Stärke Spitze Richtung
km/h Bft. km/h Grad Sektor
Sa, 31.10. 19:00 26 4 43 160° S
Sa, 31.10. 13:00 28 4 41 150° SO
Sa, 31.10. 7:00 14 3 25 240° SW
Sa, 31.10. 1:00 18 3 43 250° W
Fr, 30.10. 19:00 26 4 50 240° SW
Fr, 30.10. 13:00 30 5 48 240° SW
Fr, 30.10. 7:00 25 4 50 240° SW
Fr, 30.10. 1:00 25 4 43 230° SW
Ortszeit Stärke Spitze Richtung
km/h Bft. km/h Grad Sektor
So, 01.11. 0:00 18 3 40 200° S
Sa, 31.10. 23:30 20 4 39 200° S
Sa, 31.10. 23:20 20 4 - 200° S
Sa, 31.10. 23:10 24 4 - 200° S
Sa, 31.10. 23:00 25 4 43 200° S
Sa, 31.10. 22:50 25 4 - 200° S
Sa, 31.10. 22:30 25 4 43 200° S
Sa, 31.10. 22:00 25 4 40 200° S
Ortszeit Untergrenze Bedeckung Gattung
total tief tief mittel hoch
Sa, 31.10. 19:00 6600 m 7/8 7/8 - - -
Sa, 31.10. 13:00 60 m 8/8 8/8 - - -
Sa, 31.10. 7:00 <30 m 8/8 0/8 - - -
Sa, 31.10. 1:00 <30 m 8/8 0/8 - - -
Fr, 30.10. 19:00 <30 m 8/8 0/8 - - -
Fr, 30.10. 13:00 <30 m 8/8 0/8 - - -
Fr, 30.10. 7:00 <30 m 8/8 0/8 - - -
Fr, 30.10. 1:00 <30 m 8/8 0/8 - - -
Ortszeit Bedeckungsgrad in Achtel und Wolkenuntergrenze
So, 01.11. 0:00 7(600m)
Sa, 31.10. 23:30 7(720m) 7(1170m) 8(1800m)
Sa, 31.10. 23:20 7(720m) 7(1170m) 8(1800m)
Sa, 31.10. 23:10 7(750m) 7(1170m) 8(3000m)
Sa, 31.10. 23:00 5(900m) 8(7500m) 8(8700m)
Sa, 31.10. 22:50 5(900m) 8(7500m) 8(8700m)
Sa, 31.10. 22:30 5(3000m) 7(3900m) 8(9000m)
Sa, 31.10. 22:00 7(4800m) 7(5400m) 7(9000m)
Ortszeit Luftdruck NN (hPa) Tendenz (hPa in 3 Std.)
Sa, 31.10. 19:00 1019 - 0,5
Sa, 31.10. 13:00 1022 - 2,3
Sa, 31.10. 7:00 1024 - 0,6
Sa, 31.10. 1:00 1025 + 0,5
Fr, 30.10. 19:00 1023 + 1,1
Fr, 30.10. 13:00 1021 + 0,6
Fr, 30.10. 7:00 1019 + 0,7
Fr, 30.10. 1:00 1019 - 1,4
Ortszeit Luftdruck NN (hPa) Tendenz (hPa in 3 Std.)
So, 01.11. 0:00 1019 + 0,2
Sa, 31.10. 23:30 1019 - 0,1
Sa, 31.10. 23:20 1019 keine Meldung
Sa, 31.10. 23:10 1018 keine Meldung
Sa, 31.10. 23:00 1019 0,0
Sa, 31.10. 22:50 1019 keine Meldung
Sa, 31.10. 22:30 1018 - 0,5
Sa, 31.10. 22:00 1019 - 0,6
Ortszeit Schneehöhe (cm)
Sa, 31.10. 19:00 0
Sa, 31.10. 13:00 0
Sa, 31.10. 7:00 0
Sa, 31.10. 1:00 0
Fr, 30.10. 19:00 0
Fr, 30.10. 13:00 0
Fr, 30.10. 7:00 0
Fr, 30.10. 1:00 0
Ortszeit Schneehöhe (cm)
So, 01.11. 0:00 0
Sa, 31.10. 23:30 0
Sa, 31.10. 23:20 0
Sa, 31.10. 23:10 0
Sa, 31.10. 23:00 0
Sa, 31.10. 22:50 0
Sa, 31.10. 22:30 0
Sa, 31.10. 22:00 0
Link zu dieser Seite / Seite empfehlen

Das Wetter in ...